sensor_id;sensor_type;location;lat;lon;timestamp;pressure;altitude;pressure_sealevel;temperature;humidity
41886;BME280;27567;43.084;25.616;2023-05-19T00:01:02;98271.00;;;11.48;100.00
41886;BME280;27567;43.084;25.616;2023-05-19T00:03:51;98265.44;;;11.49;100.00
41886;BME280;27567;43.084;25.616;2023-05-19T00:06:36;98258.19;;;11.50;100.00
41886;BME280;27567;43.084;25.616;2023-05-19T00:09:22;98255.09;;;11.46;100.00
41886;BME280;27567;43.084;25.616;2023-05-19T00:12:07;98262.97;;;11.41;100.00
41886;BME280;27567;43.084;25.616;2023-05-19T00:14:53;98270.19;;;11.34;100.00
41886;BME280;27567;43.084;25.616;2023-05-19T00:17:37;98260.94;;;11.30;100.00
41886;BME280;27567;43.084;25.616;2023-05-19T00:20:25;98267.53;;;11.20;100.00
41886;BME280;27567;43.084;25.616;2023-05-19T00:23:09;98261.75;;;11.10;100.00
41886;BME280;27567;43.084;25.616;2023-05-19T00:25:53;98263.38;;;11.11;100.00
41886;BME280;27567;43.084;25.616;2023-05-19T00:28:37;98265.47;;;11.02;100.00
41886;BME280;27567;43.084;25.616;2023-05-19T00:31:21;98264.03;;;11.00;100.00
41886;BME280;27567;43.084;25.616;2023-05-19T00:34:05;98261.75;;;10.96;100.00
41886;BME280;27567;43.084;25.616;2023-05-19T00:36:49;98266.91;;;10.91;100.00
41886;BME280;27567;43.084;25.616;2023-05-19T00:39:34;98258.84;;;10.91;100.00
41886;BME280;27567;43.084;25.616;2023-05-19T00:42:19;98266.06;;;10.84;100.00
41886;BME280;27567;43.084;25.616;2023-05-19T00:45:04;98268.97;;;10.82;100.00
41886;BME280;27567;43.084;25.616;2023-05-19T00:47:48;98261.75;;;10.83;100.00
41886;BME280;27567;43.084;25.616;2023-05-19T00:50:32;98263.19;;;10.79;100.00
41886;BME280;27567;43.084;25.616;2023-05-19T00:53:17;98268.97;;;10.82;100.00
41886;BME280;27567;43.084;25.616;2023-05-19T00:56:02;98262.34;;;10.85;100.00
41886;BME280;27567;43.084;25.616;2023-05-19T00:58:47;98263.59;;;10.76;100.00
41886;BME280;27567;43.084;25.616;2023-05-19T01:01:32;98254.09;;;10.73;100.00
41886;BME280;27567;43.084;25.616;2023-05-19T01:04:20;98261.09;;;10.74;100.00
41886;BME280;27567;43.084;25.616;2023-05-19T01:07:04;98243.38;;;10.73;100.00
41886;BME280;27567;43.084;25.616;2023-05-19T01:09:50;98254.94;;;10.80;100.00
41886;BME280;27567;43.084;25.616;2023-05-19T01:12:35;98256.41;;;10.83;100.00
41886;BME280;27567;43.084;25.616;2023-05-19T01:15:19;98247.28;;;10.84;100.00
41886;BME280;27567;43.084;25.616;2023-05-19T01:18:11;98250.59;;;10.86;100.00
41886;BME280;27567;43.084;25.616;2023-05-19T01:21:16;98241.94;;;10.77;100.00
41886;BME280;27567;43.084;25.616;2023-05-19T01:33:22;98248.72;;;10.60;100.00
41886;BME280;27567;43.084;25.616;2023-05-19T01:36:07;98258.41;;;10.54;100.00
41886;BME280;27567;43.084;25.616;2023-05-19T01:38:56;98258.63;;;10.59;100.00
41886;BME280;27567;43.084;25.616;2023-05-19T01:41:41;98249.34;;;10.55;100.00
41886;BME280;27567;43.084;25.616;2023-05-19T01:44:26;98270.78;;;10.55;100.00
41886;BME280;27567;43.084;25.616;2023-05-19T01:47:11;98272.44;;;10.56;100.00
41886;BME280;27567;43.084;25.616;2023-05-19T01:49:56;98279.63;;;10.56;100.00
41886;BME280;27567;43.084;25.616;2023-05-19T01:52:40;98273.25;;;10.57;100.00
41886;BME280;27567;43.084;25.616;2023-05-19T01:55:25;98281.91;;;10.59;100.00
41886;BME280;27567;43.084;25.616;2023-05-19T02:07:04;98298.00;;;10.65;100.00
41886;BME280;27567;43.084;25.616;2023-05-19T02:10:02;98288.13;;;10.66;100.00
41886;BME280;27567;43.084;25.616;2023-05-19T02:12:49;98296.78;;;10.68;100.00
41886;BME280;27567;43.084;25.616;2023-05-19T02:15:40;98292.47;;;10.67;100.00
41886;BME280;27567;43.084;25.616;2023-05-19T02:18:27;98300.09;;;10.70;100.00
41886;BME280;27567;43.084;25.616;2023-05-19T02:21:12;98299.06;;;10.71;100.00
41886;BME280;27567;43.084;25.616;2023-05-19T02:23:56;98298.44;;;10.69;100.00
41886;BME280;27567;43.084;25.616;2023-05-19T02:26:41;98310.19;;;10.68;100.00
41886;BME280;27567;43.084;25.616;2023-05-19T02:29:24;98312.66;;;10.70;100.00
41886;BME280;27567;43.084;25.616;2023-05-19T02:32:10;98317.41;;;10.61;100.00
41886;BME280;27567;43.084;25.616;2023-05-19T02:34:54;98319.63;;;10.50;100.00
41886;BME280;27567;43.084;25.616;2023-05-19T02:37:39;98321.66;;;10.48;100.00
41886;BME280;27567;43.084;25.616;2023-05-19T02:40:23;98330.31;;;10.44;100.00
41886;BME280;27567;43.084;25.616;2023-05-19T02:43:07;98339.34;;;10.36;100.00
41886;BME280;27567;43.084;25.616;2023-05-19T02:45:51;98337.47;;;10.36;100.00
41886;BME280;27567;43.084;25.616;2023-05-19T02:48:35;98347.16;;;10.37;100.00
41886;BME280;27567;43.084;25.616;2023-05-19T02:51:19;98350.06;;;10.36;100.00
41886;BME280;27567;43.084;25.616;2023-05-19T02:54:03;98350.28;;;10.34;100.00
41886;BME280;27567;43.084;25.616;2023-05-19T02:56:47;98355.00;;;10.32;100.00
41886;BME280;27567;43.084;25.616;2023-05-19T02:59:31;98355.19;;;10.31;100.00
41886;BME280;27567;43.084;25.616;2023-05-19T03:02:15;98357.06;;;10.37;100.00
41886;BME280;27567;43.084;25.616;2023-05-19T03:04:59;98348.63;;;10.33;100.00
41886;BME280;27567;43.084;25.616;2023-05-19T03:07:44;98358.09;;;10.36;100.00
41886;BME280;27567;43.084;25.616;2023-05-19T03:10:29;98346.75;;;10.34;100.00
41886;BME280;27567;43.084;25.616;2023-05-19T03:13:13;98350.28;;;10.34;100.00
41886;BME280;27567;43.084;25.616;2023-05-19T03:15:57;98353.81;;;10.42;100.00
41886;BME280;27567;43.084;25.616;2023-05-19T03:18:41;98353.56;;;10.36;100.00
41886;BME280;27567;43.084;25.616;2023-05-19T03:21:26;98366.94;;;10.36;100.00
41886;BME280;27567;43.084;25.616;2023-05-19T03:24:10;98364.50;;;10.35;100.00
41886;BME280;27567;43.084;25.616;2023-05-19T03:26:54;98378.69;;;10.35;100.00
41886;BME280;27567;43.084;25.616;2023-05-19T03:29:38;98378.78;;;10.42;100.00
41886;BME280;27567;43.084;25.616;2023-05-19T03:32:22;98386.00;;;10.48;100.00
41886;BME280;27567;43.084;25.616;2023-05-19T03:35:06;98381.50;;;10.56;100.00
41886;BME280;27567;43.084;25.616;2023-05-19T03:37:51;98384.63;;;10.59;100.00
41886;BME280;27567;43.084;25.616;2023-05-19T03:40:35;98388.34;;;10.65;100.00
41886;BME280;27567;43.084;25.616;2023-05-19T03:43:19;98379.94;;;10.75;100.00
41886;BME280;27567;43.084;25.616;2023-05-19T03:46:03;98386.53;;;10.79;100.00
41886;BME280;27567;43.084;25.616;2023-05-19T03:48:50;98387.19;;;10.81;100.00
41886;BME280;27567;43.084;25.616;2023-05-19T03:51:34;98386.56;;;10.86;100.00
41886;BME280;27567;43.084;25.616;2023-05-19T03:54:19;98389.66;;;10.96;100.00
41886;BME280;27567;43.084;25.616;2023-05-19T03:57:05;98394.03;;;11.04;100.00
41886;BME280;27567;43.084;25.616;2023-05-19T03:59:49;98379.59;;;11.11;100.00
41886;BME280;27567;43.084;25.616;2023-05-19T04:02:33;98384.56;;;11.35;100.00
41886;BME280;27567;43.084;25.616;2023-05-19T04:05:17;98389.13;;;11.54;100.00
41886;BME280;27567;43.084;25.616;2023-05-19T04:08:01;98382.09;;;11.73;100.00
41886;BME280;27567;43.084;25.616;2023-05-19T04:10:45;98384.75;;;11.80;100.00
41886;BME280;27567;43.084;25.616;2023-05-19T04:13:31;98387.66;;;11.85;100.00
41886;BME280;27567;43.084;25.616;2023-05-19T04:16:16;98382.09;;;12.00;100.00
41886;BME280;27567;43.084;25.616;2023-05-19T04:19:00;98379.63;;;11.99;100.00
41886;BME280;27567;43.084;25.616;2023-05-19T04:21:44;98382.69;;;11.96;100.00
41886;BME280;27567;43.084;25.616;2023-05-19T04:24:28;98384.75;;;11.94;100.00
41886;BME280;27567;43.084;25.616;2023-05-19T04:27:12;98385.38;;;12.02;100.00
41886;BME280;27567;43.084;25.616;2023-05-19T04:29:58;98384.13;;;12.05;100.00
41886;BME280;27567;43.084;25.616;2023-05-19T04:32:42;98390.75;;;12.09;100.00
41886;BME280;27567;43.084;25.616;2023-05-19T04:35:26;98389.09;;;12.08;100.00
41886;BME280;27567;43.084;25.616;2023-05-19T04:38:10;98388.88;;;12.16;100.00
41886;BME280;27567;43.084;25.616;2023-05-19T04:40:54;98386.38;;;12.22;100.00
41886;BME280;27567;43.084;25.616;2023-05-19T04:43:39;98382.44;;;12.24;100.00
41886;BME280;27567;43.084;25.616;2023-05-19T04:46:27;98391.97;;;12.27;100.00
41886;BME280;27567;43.084;25.616;2023-05-19T04:49:12;98393.78;;;12.33;100.00
41886;BME280;27567;43.084;25.616;2023-05-19T04:51:57;98404.69;;;12.45;100.00
41886;BME280;27567;43.084;25.616;2023-05-19T04:54:41;98400.94;;;12.53;100.00
41886;BME280;27567;43.084;25.616;2023-05-19T04:57:25;98398.75;;;12.82;100.00
41886;BME280;27567;43.084;25.616;2023-05-19T05:00:10;98403.53;;;12.86;100.00
41886;BME280;27567;43.084;25.616;2023-05-19T05:02:56;98403.63;;;13.05;100.00
41886;BME280;27567;43.084;25.616;2023-05-19T05:05:41;98392.06;;;13.30;100.00
41886;BME280;27567;43.084;25.616;2023-05-19T05:08:25;98393.63;;;13.12;100.00
41886;BME280;27567;43.084;25.616;2023-05-19T05:11:10;98397.88;;;13.27;100.00
41886;BME280;27567;43.084;25.616;2023-05-19T05:13:55;98409.94;;;13.17;100.00
41886;BME280;27567;43.084;25.616;2023-05-19T05:16:42;98406.44;;;13.17;100.00
41886;BME280;27567;43.084;25.616;2023-05-19T05:19:27;98419.31;;;13.40;100.00
41886;BME280;27567;43.084;25.616;2023-05-19T05:22:11;98414.16;;;13.38;100.00
41886;BME280;27567;43.084;25.616;2023-05-19T05:24:58;98416.91;;;13.32;100.00
41886;BME280;27567;43.084;25.616;2023-05-19T05:27:42;98408.00;;;13.31;100.00
41886;BME280;27567;43.084;25.616;2023-05-19T05:30:26;98429.06;;;13.48;100.00
41886;BME280;27567;43.084;25.616;2023-05-19T05:33:10;98414.44;;;13.62;100.00
41886;BME280;27567;43.084;25.616;2023-05-19T05:35:54;98425.31;;;13.74;100.00
41886;BME280;27567;43.084;25.616;2023-05-19T05:38:38;98415.94;;;13.83;100.00
41886;BME280;27567;43.084;25.616;2023-05-19T05:41:22;98412.13;;;13.91;100.00
41886;BME280;27567;43.084;25.616;2023-05-19T05:44:09;98428.66;;;13.95;100.00
41886;BME280;27567;43.084;25.616;2023-05-19T05:46:53;98423.91;;;14.16;100.00
41886;BME280;27567;43.084;25.616;2023-05-19T05:49:38;98427.88;;;14.13;100.00
41886;BME280;27567;43.084;25.616;2023-05-19T05:52:28;98434.41;;;14.24;100.00
41886;BME280;27567;43.084;25.616;2023-05-19T05:55:13;98429.72;;;14.38;100.00
41886;BME280;27567;43.084;25.616;2023-05-19T05:57:58;98435.19;;;14.50;100.00
41886;BME280;27567;43.084;25.616;2023-05-19T06:00:44;98441.97;;;14.52;100.00
41886;BME280;27567;43.084;25.616;2023-05-19T06:03:30;98441.00;;;14.65;100.00
41886;BME280;27567;43.084;25.616;2023-05-19T06:06:16;98434.66;;;14.60;100.00
41886;BME280;27567;43.084;25.616;2023-05-19T06:09:00;98442.44;;;14.68;100.00
41886;BME280;27567;43.084;25.616;2023-05-19T06:11:44;98442.50;;;14.61;100.00
41886;BME280;27567;43.084;25.616;2023-05-19T06:14:28;98437.22;;;14.73;100.00
41886;BME280;27567;43.084;25.616;2023-05-19T06:17:12;98445.75;;;14.88;100.00
41886;BME280;27567;43.084;25.616;2023-05-19T06:19:56;98454.56;;;15.14;100.00
41886;BME280;27567;43.084;25.616;2023-05-19T06:22:40;98448.13;;;14.97;100.00
41886;BME280;27567;43.084;25.616;2023-05-19T06:25:24;98452.25;;;15.30;100.00
41886;BME280;27567;43.084;25.616;2023-05-19T06:28:08;98457.50;;;15.55;100.00
41886;BME280;27567;43.084;25.616;2023-05-19T06:30:52;98461.72;;;15.51;100.00
41886;BME280;27567;43.084;25.616;2023-05-19T06:33:36;98456.84;;;15.84;100.00
41886;BME280;27567;43.084;25.616;2023-05-19T06:36:20;98463.59;;;15.51;100.00
41886;BME280;27567;43.084;25.616;2023-05-19T06:39:03;98469.56;;;15.41;100.00
41886;BME280;27567;43.084;25.616;2023-05-19T06:41:48;98466.66;;;15.54;100.00
41886;BME280;27567;43.084;25.616;2023-05-19T06:44:32;98471.63;;;15.27;100.00
41886;BME280;27567;43.084;25.616;2023-05-19T06:47:16;98471.91;;;15.37;100.00
41886;BME280;27567;43.084;25.616;2023-05-19T06:50:04;98470.09;;;15.61;100.00
41886;BME280;27567;43.084;25.616;2023-05-19T06:52:49;98469.09;;;15.44;100.00
41886;BME280;27567;43.084;25.616;2023-05-19T06:55:33;98474.72;;;15.73;100.00
41886;BME280;27567;43.084;25.616;2023-05-19T06:58:16;98475.53;;;15.85;100.00
41886;BME280;27567;43.084;25.616;2023-05-19T07:01:00;98480.53;;;16.12;100.00
41886;BME280;27567;43.084;25.616;2023-05-19T07:03:44;98475.25;;;16.17;100.00
41886;BME280;27567;43.084;25.616;2023-05-19T07:06:29;98475.84;;;16.07;100.00
41886;BME280;27567;43.084;25.616;2023-05-19T07:09:14;98471.59;;;16.47;100.00
41886;BME280;27567;43.084;25.616;2023-05-19T07:11:58;98473.78;;;16.74;100.00
41886;BME280;27567;43.084;25.616;2023-05-19T07:14:42;98475.75;;;17.03;100.00
41886;BME280;27567;43.084;25.616;2023-05-19T07:17:26;98479.75;;;16.88;100.00
41886;BME280;27567;43.084;25.616;2023-05-19T07:20:10;98482.47;;;16.76;100.00
41886;BME280;27567;43.084;25.616;2023-05-19T07:22:54;98492.88;;;16.67;100.00
41886;BME280;27567;43.084;25.616;2023-05-19T07:25:38;98480.84;;;17.28;100.00
41886;BME280;27567;43.084;25.616;2023-05-19T07:28:22;98494.44;;;18.08;100.00
41886;BME280;27567;43.084;25.616;2023-05-19T07:31:06;98495.50;;;18.41;100.00
41886;BME280;27567;43.084;25.616;2023-05-19T07:33:51;98498.72;;;18.21;100.00
41886;BME280;27567;43.084;25.616;2023-05-19T07:36:35;98495.41;;;17.39;100.00
41886;BME280;27567;43.084;25.616;2023-05-19T07:39:19;98493.06;;;17.60;100.00
41886;BME280;27567;43.084;25.616;2023-05-19T07:42:04;98493.53;;;18.02;100.00
41886;BME280;27567;43.084;25.616;2023-05-19T07:44:48;98503.50;;;17.68;100.00
41886;BME280;27567;43.084;25.616;2023-05-19T07:47:32;98496.78;;;17.70;100.00
41886;BME280;27567;43.084;25.616;2023-05-19T07:50:16;98503.53;;;17.85;100.00
41886;BME280;27567;43.084;25.616;2023-05-19T07:53:00;98508.78;;;17.75;100.00
41886;BME280;27567;43.084;25.616;2023-05-19T07:55:44;98499.53;;;17.41;100.00
41886;BME280;27567;43.084;25.616;2023-05-19T07:58:29;98495.09;;;17.98;100.00
41886;BME280;27567;43.084;25.616;2023-05-19T08:01:13;98496.88;;;17.76;100.00
41886;BME280;27567;43.084;25.616;2023-05-19T08:03:57;98498.44;;;17.88;100.00
41886;BME280;27567;43.084;25.616;2023-05-19T08:06:41;98495.78;;;17.77;100.00
41886;BME280;27567;43.084;25.616;2023-05-19T08:09:27;98505.59;;;17.95;100.00
41886;BME280;27567;43.084;25.616;2023-05-19T08:12:11;98502.03;;;17.60;100.00
41886;BME280;27567;43.084;25.616;2023-05-19T08:14:55;98503.53;;;17.39;100.00
41886;BME280;27567;43.084;25.616;2023-05-19T08:17:38;98501.59;;;18.31;100.00
41886;BME280;27567;43.084;25.616;2023-05-19T08:20:22;98507.72;;;18.61;100.00
41886;BME280;27567;43.084;25.616;2023-05-19T08:23:07;98504.03;;;18.33;100.00
41886;BME280;27567;43.084;25.616;2023-05-19T08:25:51;98512.47;;;17.85;100.00
41886;BME280;27567;43.084;25.616;2023-05-19T08:28:35;98502.00;;;18.23;100.00
41886;BME280;27567;43.084;25.616;2023-05-19T08:31:19;98510.19;;;17.94;100.00
41886;BME280;27567;43.084;25.616;2023-05-19T08:34:03;98511.44;;;17.57;100.00
41886;BME280;27567;43.084;25.616;2023-05-19T08:36:47;98510.75;;;17.62;100.00
41886;BME280;27567;43.084;25.616;2023-05-19T08:39:31;98509.91;;;17.62;100.00
41886;BME280;27567;43.084;25.616;2023-05-19T08:42:17;98512.22;;;17.99;100.00
41886;BME280;27567;43.084;25.616;2023-05-19T08:45:01;98514.00;;;18.10;100.00
41886;BME280;27567;43.084;25.616;2023-05-19T08:47:45;98505.59;;;18.46;100.00
41886;BME280;27567;43.084;25.616;2023-05-19T08:50:30;98512.69;;;19.08;100.00
41886;BME280;27567;43.084;25.616;2023-05-19T08:53:19;98508.47;;;19.18;100.00
41886;BME280;27567;43.084;25.616;2023-05-19T08:56:10;98502.31;;;18.44;100.00
41886;BME280;27567;43.084;25.616;2023-05-19T08:58:55;98499.84;;;18.82;100.00
41886;BME280;27567;43.084;25.616;2023-05-19T09:01:44;98500.97;;;18.63;100.00
41886;BME280;27567;43.084;25.616;2023-05-19T09:04:29;98508.06;;;18.65;100.00
41886;BME280;27567;43.084;25.616;2023-05-19T09:07:14;98511.59;;;18.31;100.00
41886;BME280;27567;43.084;25.616;2023-05-19T09:09:59;98504.59;;;18.52;100.00
41886;BME280;27567;43.084;25.616;2023-05-19T09:12:45;98497.59;;;18.96;100.00
41886;BME280;27567;43.084;25.616;2023-05-19T09:15:31;98504.88;;;19.89;100.00
41886;BME280;27567;43.084;25.616;2023-05-19T09:18:17;98509.25;;;19.13;100.00
41886;BME280;27567;43.084;25.616;2023-05-19T09:21:01;98504.50;;;19.53;100.00
41886;BME280;27567;43.084;25.616;2023-05-19T09:23:45;98506.56;;;19.95;100.00
41886;BME280;27567;43.084;25.616;2023-05-19T09:26:40;98507.13;;;19.97;100.00
41886;BME280;27567;43.084;25.616;2023-05-19T09:29:25;98499.28;;;19.79;100.00
41886;BME280;27567;43.084;25.616;2023-05-19T09:32:09;98510.97;;;19.47;100.00
41886;BME280;27567;43.084;25.616;2023-05-19T09:34:53;98505.09;;;20.58;100.00
41886;BME280;27567;43.084;25.616;2023-05-19T09:37:39;98506.50;;;20.23;100.00
41886;BME280;27567;43.084;25.616;2023-05-19T09:40:26;98500.03;;;19.96;100.00
41886;BME280;27567;43.084;25.616;2023-05-19T09:43:11;98504.78;;;19.84;100.00
41886;BME280;27567;43.084;25.616;2023-05-19T09:46:08;98493.94;;;21.13;100.00
41886;BME280;27567;43.084;25.616;2023-05-19T09:48:56;98486.97;;;20.79;100.00
41886;BME280;27567;43.084;25.616;2023-05-19T09:51:41;98499.06;;;20.13;100.00
41886;BME280;27567;43.084;25.616;2023-05-19T09:54:29;98492.84;;;20.18;100.00
41886;BME280;27567;43.084;25.616;2023-05-19T09:57:15;98495.16;;;19.44;100.00
41886;BME280;27567;43.084;25.616;2023-05-19T10:00:06;98480.56;;;19.00;100.00
41886;BME280;27567;43.084;25.616;2023-05-19T10:02:54;98480.75;;;19.71;100.00
41886;BME280;27567;43.084;25.616;2023-05-19T10:05:40;98478.72;;;20.21;100.00
41886;BME280;27567;43.084;25.616;2023-05-19T10:08:26;98487.63;;;20.49;100.00
41886;BME280;27567;43.084;25.616;2023-05-19T10:11:13;98482.47;;;21.11;100.00
41886;BME280;27567;43.084;25.616;2023-05-19T10:14:00;98477.03;;;22.97;100.00
41886;BME280;27567;43.084;25.616;2023-05-19T10:16:44;98477.47;;;23.15;100.00
41886;BME280;27567;43.084;25.616;2023-05-19T10:19:28;98487.53;;;23.35;100.00
41886;BME280;27567;43.084;25.616;2023-05-19T10:22:13;98480.75;;;23.17;100.00
41886;BME280;27567;43.084;25.616;2023-05-19T10:24:59;98484.22;;;23.78;100.00
41886;BME280;27567;43.084;25.616;2023-05-19T10:27:55;98480.41;;;24.67;100.00
41886;BME280;27567;43.084;25.616;2023-05-19T10:30:43;98468.06;;;24.94;100.00
41886;BME280;27567;43.084;25.616;2023-05-19T10:39:32;98463.38;;;24.75;100.00
41886;BME280;27567;43.084;25.616;2023-05-19T10:45:17;98443.00;;;25.25;100.00
41886;BME280;27567;43.084;25.616;2023-05-19T10:48:03;98440.00;;;27.24;100.00
41886;BME280;27567;43.084;25.616;2023-05-19T10:50:48;98436.75;;;27.22;100.00
41886;BME280;27567;43.084;25.616;2023-05-19T10:53:40;98449.81;;;28.21;100.00
41886;BME280;27567;43.084;25.616;2023-05-19T10:56:31;98446.97;;;27.07;100.00
41886;BME280;27567;43.084;25.616;2023-05-19T10:59:30;98442.09;;;26.48;100.00
41886;BME280;27567;43.084;25.616;2023-05-19T11:02:36;98423.53;;;27.10;100.00
41886;BME280;27567;43.084;25.616;2023-05-19T11:05:28;98426.50;;;27.50;100.00
41886;BME280;27567;43.084;25.616;2023-05-19T11:08:12;98436.72;;;25.44;100.00
41886;BME280;27567;43.084;25.616;2023-05-19T11:11:12;98403.63;;;26.34;100.00
41886;BME280;27567;43.084;25.616;2023-05-19T11:13:58;98426.44;;;25.69;100.00
41886;BME280;27567;43.084;25.616;2023-05-19T11:16:45;98404.53;;;26.44;100.00
41886;BME280;27567;43.084;25.616;2023-05-19T11:19:31;98405.25;;;26.35;100.00
41886;BME280;27567;43.084;25.616;2023-05-19T11:22:17;98399.44;;;25.18;100.00
41886;BME280;27567;43.084;25.616;2023-05-19T11:25:02;98397.00;;;26.49;100.00
41886;BME280;27567;43.084;25.616;2023-05-19T11:27:47;98403.50;;;28.00;100.00
41886;BME280;27567;43.084;25.616;2023-05-19T11:30:31;98386.22;;;29.07;87.88
41886;BME280;27567;43.084;25.616;2023-05-19T11:33:15;98408.13;;;26.11;100.00
41886;BME280;27567;43.084;25.616;2023-05-19T11:36:03;98386.03;;;25.88;100.00
41886;BME280;27567;43.084;25.616;2023-05-19T11:38:47;98390.72;;;26.02;100.00
41886;BME280;27567;43.084;25.616;2023-05-19T11:41:37;98384.75;;;26.97;100.00
41886;BME280;27567;43.084;25.616;2023-05-19T11:44:22;98393.94;;;25.76;100.00
41886;BME280;27567;43.084;25.616;2023-05-19T11:47:06;98383.66;;;26.15;100.00
41886;BME280;27567;43.084;25.616;2023-05-19T11:49:51;98380.13;;;27.43;100.00
41886;BME280;27567;43.084;25.616;2023-05-19T11:52:35;98383.28;;;25.55;100.00
41886;BME280;27567;43.084;25.616;2023-05-19T11:55:19;98378.09;;;27.12;100.00
41886;BME280;27567;43.084;25.616;2023-05-19T11:58:04;98373.69;;;26.33;100.00
41886;BME280;27567;43.084;25.616;2023-05-19T12:00:49;98362.28;;;26.11;100.00
41886;BME280;27567;43.084;25.616;2023-05-19T12:03:34;98356.91;;;26.34;100.00
41886;BME280;27567;43.084;25.616;2023-05-19T12:06:18;98353.81;;;23.63;100.00
41886;BME280;27567;43.084;25.616;2023-05-19T12:09:04;98353.78;;;22.88;100.00
41886;BME280;27567;43.084;25.616;2023-05-19T12:11:49;98365.34;;;23.20;100.00
41886;BME280;27567;43.084;25.616;2023-05-19T12:14:34;98359.44;;;22.42;100.00
41886;BME280;27567;43.084;25.616;2023-05-19T12:17:19;98346.41;;;25.42;100.00
41886;BME280;27567;43.084;25.616;2023-05-19T12:20:04;98347.25;;;28.91;92.89
41886;BME280;27567;43.084;25.616;2023-05-19T12:22:50;98361.44;;;27.54;89.59
41886;BME280;27567;43.084;25.616;2023-05-19T12:25:34;98360.50;;;26.99;94.90
41886;BME280;27567;43.084;25.616;2023-05-19T12:28:18;98358.25;;;28.24;87.08
41886;BME280;27567;43.084;25.616;2023-05-19T12:31:02;98353.19;;;27.86;96.55
41886;BME280;27567;43.084;25.616;2023-05-19T12:33:49;98351.72;;;28.52;92.86
41886;BME280;27567;43.084;25.616;2023-05-19T12:36:34;98357.72;;;28.62;87.60
41886;BME280;27567;43.084;25.616;2023-05-19T12:39:18;98367.06;;;26.20;100.00
41886;BME280;27567;43.084;25.616;2023-05-19T12:42:03;98347.19;;;26.93;100.00
41886;BME280;27567;43.084;25.616;2023-05-19T12:44:50;98352.66;;;28.47;86.18
41886;BME280;27567;43.084;25.616;2023-05-19T12:47:35;98341.44;;;30.02;69.22
41886;BME280;27567;43.084;25.616;2023-05-19T12:50:19;98340.91;;;30.56;64.32
41886;BME280;27567;43.084;25.616;2023-05-19T12:53:07;98344.06;;;28.40;82.08
41886;BME280;27567;43.084;25.616;2023-05-19T12:55:51;98347.31;;;26.46;93.69
41886;BME280;27567;43.084;25.616;2023-05-19T12:58:36;98333.41;;;25.15;100.00
41886;BME280;27567;43.084;25.616;2023-05-19T13:01:21;98349.41;;;23.32;100.00
41886;BME280;27567;43.084;25.616;2023-05-19T13:04:05;98341.38;;;22.56;100.00
41886;BME280;27567;43.084;25.616;2023-05-19T13:06:51;98325.88;;;22.36;100.00
41886;BME280;27567;43.084;25.616;2023-05-19T13:09:35;98332.69;;;22.39;100.00
41886;BME280;27567;43.084;25.616;2023-05-19T13:12:21;98327.59;;;22.06;100.00
41886;BME280;27567;43.084;25.616;2023-05-19T13:15:05;98329.22;;;22.17;100.00
41886;BME280;27567;43.084;25.616;2023-05-19T13:17:50;98362.28;;;22.05;100.00
41886;BME280;27567;43.084;25.616;2023-05-19T13:20:38;98422.88;;;22.13;100.00
41886;BME280;27567;43.084;25.616;2023-05-19T13:23:23;98409.53;;;18.47;100.00
41886;BME280;27567;43.084;25.616;2023-05-19T13:26:08;98418.84;;;16.74;100.00
41886;BME280;27567;43.084;25.616;2023-05-19T13:28:55;98430.56;;;16.03;100.00
41886;BME280;27567;43.084;25.616;2023-05-19T13:31:39;98432.56;;;15.41;100.00
41886;BME280;27567;43.084;25.616;2023-05-19T13:34:23;98440.94;;;14.53;100.00
41886;BME280;27567;43.084;25.616;2023-05-19T13:37:08;98448.56;;;14.19;100.00
41886;BME280;27567;43.084;25.616;2023-05-19T13:39:57;98452.44;;;13.79;100.00
41886;BME280;27567;43.084;25.616;2023-05-19T13:42:41;98470.56;;;13.91;100.00
41886;BME280;27567;43.084;25.616;2023-05-19T13:45:26;98493.19;;;14.15;100.00
41886;BME280;27567;43.084;25.616;2023-05-19T13:48:10;98487.38;;;14.37;100.00
41886;BME280;27567;43.084;25.616;2023-05-19T13:50:55;98458.97;;;13.90;100.00
41886;BME280;27567;43.084;25.616;2023-05-19T13:53:39;98455.53;;;13.51;100.00
41886;BME280;27567;43.084;25.616;2023-05-19T13:56:24;98455.03;;;13.29;100.00
41886;BME280;27567;43.084;25.616;2023-05-19T13:59:09;98452.38;;;13.22;100.00
41886;BME280;27567;43.084;25.616;2023-05-19T14:01:53;98473.59;;;13.05;100.00
41886;BME280;27567;43.084;25.616;2023-05-19T14:04:38;98473.56;;;13.12;100.00
41886;BME280;27567;43.084;25.616;2023-05-19T14:07:22;98483.50;;;13.04;100.00
41886;BME280;27567;43.084;25.616;2023-05-19T14:10:07;98484.69;;;13.15;100.00
41886;BME280;27567;43.084;25.616;2023-05-19T14:12:51;98487.97;;;13.31;100.00
41886;BME280;27567;43.084;25.616;2023-05-19T14:15:37;98476.34;;;13.30;100.00
41886;BME280;27567;43.084;25.616;2023-05-19T14:18:21;98463.72;;;13.31;100.00
41886;BME280;27567;43.084;25.616;2023-05-19T14:21:05;98457.22;;;13.45;100.00
41886;BME280;27567;43.084;25.616;2023-05-19T14:23:49;98460.00;;;13.32;100.00
41886;BME280;27567;43.084;25.616;2023-05-19T14:26:33;98453.16;;;13.29;100.00
41886;BME280;27567;43.084;25.616;2023-05-19T14:29:17;98454.63;;;13.25;100.00
41886;BME280;27567;43.084;25.616;2023-05-19T14:32:01;98476.66;;;13.08;100.00
41886;BME280;27567;43.084;25.616;2023-05-19T14:34:46;98483.78;;;12.96;100.00
41886;BME280;27567;43.084;25.616;2023-05-19T14:37:30;98479.06;;;12.78;100.00
41886;BME280;27567;43.084;25.616;2023-05-19T14:40:15;98488.38;;;12.82;100.00